createdAt,value
2022-12-01T00:00:26.191Z,22.51
2022-12-01T00:03:13.869Z,24.30
2022-12-01T00:06:01.570Z,25.17
2022-12-01T00:08:49.134Z,25.04
2022-12-01T00:11:36.740Z,25.44
2022-12-01T00:14:24.352Z,24.53
2022-12-01T00:17:11.954Z,26.66
2022-12-01T00:19:59.529Z,27.34
2022-12-01T00:22:47.111Z,27.54
2022-12-01T00:25:34.686Z,27.08
2022-12-01T00:28:22.283Z,26.82
2022-12-01T00:31:09.872Z,26.66
2022-12-01T00:33:57.461Z,27.13
2022-12-01T00:36:45.079Z,26.16
2022-12-01T00:39:32.693Z,26.46
2022-12-01T00:42:20.290Z,25.59
2022-12-01T00:45:07.855Z,25.48
2022-12-01T00:47:55.442Z,25.94
2022-12-01T00:50:43.005Z,24.67
2022-12-01T00:53:30.601Z,25.02
2022-12-01T00:56:18.170Z,25.02
2022-12-01T00:59:05.757Z,24.15
2022-12-01T01:01:53.359Z,25.76
2022-12-01T01:04:40.964Z,25.02
2022-12-01T01:07:28.595Z,24.72
2022-12-01T01:10:16.186Z,25.82
2022-12-01T01:13:03.743Z,25.13
2022-12-01T01:15:51.382Z,24.24
2022-12-01T01:18:38.963Z,24.48
2022-12-01T01:21:26.559Z,24.05
2022-12-01T01:24:14.121Z,24.41
2022-12-01T01:27:01.701Z,24.07
2022-12-01T01:29:49.464Z,25.45
2022-12-01T01:32:37.253Z,24.66
2022-12-01T01:35:24.843Z,25.53
2022-12-01T01:38:13.486Z,24.60
2022-12-01T01:41:01.090Z,23.28
2022-12-01T01:43:48.653Z,23.95
2022-12-01T01:46:36.471Z,23.51
2022-12-01T01:49:24.060Z,22.83
2022-12-01T01:52:11.665Z,23.09
2022-12-01T01:54:59.250Z,23.12
2022-12-01T01:57:46.835Z,22.38
2022-12-01T02:00:34.440Z,21.67
2022-12-01T02:03:22.035Z,23.75
2022-12-01T02:06:09.609Z,22.55
2022-12-01T02:08:57.202Z,22.43
2022-12-01T02:11:44.786Z,22.98
2022-12-01T02:14:32.364Z,22.64
2022-12-01T02:17:19.934Z,22.24
2022-12-01T02:20:07.506Z,22.94
2022-12-01T02:22:55.086Z,22.20
2022-12-01T02:25:42.658Z,22.10
2022-12-01T02:28:30.231Z,21.24
2022-12-01T02:31:17.959Z,20.18
2022-12-01T02:34:07.575Z,20.69
2022-12-01T02:36:55.148Z,20.38
2022-12-01T02:39:42.745Z,19.88
2022-12-01T02:42:30.357Z,20.30
2022-12-01T02:45:17.965Z,20.65
2022-12-01T02:48:05.572Z,19.97
2022-12-01T02:50:53.169Z,19.07
2022-12-01T02:53:40.755Z,18.99
2022-12-01T02:56:28.337Z,19.61
2022-12-01T02:59:15.935Z,19.13
2022-12-01T03:02:03.490Z,18.90
2022-12-01T03:04:51.094Z,18.82
2022-12-01T03:07:38.693Z,18.80
2022-12-01T03:10:26.322Z,19.30
2022-12-01T03:13:13.911Z,18.96
2022-12-01T03:16:01.535Z,19.19
2022-12-01T03:18:49.148Z,20.22
2022-12-01T03:21:36.749Z,19.20
2022-12-01T03:24:24.336Z,19.51
2022-12-01T03:27:11.945Z,19.86
2022-12-01T03:29:59.508Z,19.57
2022-12-01T03:32:47.098Z,19.61
2022-12-01T03:35:34.786Z,19.58
2022-12-01T03:38:22.355Z,20.05
2022-12-01T03:41:09.950Z,19.43
2022-12-01T03:43:57.525Z,20.19
2022-12-01T03:46:45.119Z,19.59
2022-12-01T03:49:32.703Z,19.48
2022-12-01T03:52:20.300Z,20.31
2022-12-01T03:55:07.886Z,19.43
2022-12-01T03:57:55.485Z,19.67
2022-12-01T04:00:43.054Z,19.22
2022-12-01T04:03:30.634Z,19.88
2022-12-01T04:06:18.221Z,19.21
2022-12-01T04:09:05.814Z,18.80
2022-12-01T04:11:53.401Z,19.05
2022-12-01T04:15:00.979Z,19.05
2022-12-01T04:17:48.546Z,18.97
2022-12-01T04:20:38.119Z,18.77
2022-12-01T04:23:25.693Z,19.07
2022-12-01T04:26:15.907Z,18.51
2022-12-01T04:29:03.686Z,18.67
2022-12-01T04:31:51.396Z,19.08
2022-12-01T04:34:39.050Z,17.58
2022-12-01T04:37:26.648Z,18.52
2022-12-01T04:40:14.253Z,18.45
2022-12-01T04:43:01.829Z,19.34
2022-12-01T04:45:49.429Z,19.07
2022-12-01T04:48:37.021Z,19.72
2022-12-01T04:51:24.647Z,18.77
2022-12-01T04:54:12.233Z,19.57
2022-12-01T04:56:59.821Z,19.09
2022-12-01T04:59:47.538Z,19.30
2022-12-01T05:02:35.479Z,19.56
2022-12-01T05:05:23.067Z,18.96
2022-12-01T05:08:10.721Z,19.93
2022-12-01T05:10:58.391Z,20.57
2022-12-01T05:13:45.993Z,19.49
2022-12-01T05:16:33.654Z,19.39
2022-12-01T05:19:21.296Z,18.96
2022-12-01T05:22:08.874Z,20.02
2022-12-01T05:24:56.466Z,20.28
2022-12-01T05:27:44.030Z,20.11
2022-12-01T05:30:31.590Z,20.09
2022-12-01T05:33:19.178Z,20.11
2022-12-01T05:36:06.819Z,19.57
2022-12-01T05:38:54.393Z,20.66
2022-12-01T05:41:42.013Z,19.93
2022-12-01T05:44:29.591Z,20.35
2022-12-01T05:47:17.197Z,20.33
2022-12-01T05:50:06.031Z,21.02
2022-12-01T05:52:53.806Z,20.10
2022-12-01T05:55:41.378Z,20.20
2022-12-01T05:58:28.966Z,20.27
2022-12-01T06:01:16.580Z,20.37
2022-12-01T06:04:04.193Z,20.27
2022-12-01T06:06:51.794Z,19.52
2022-12-01T06:09:39.374Z,19.48
2022-12-01T06:12:26.922Z,19.28
2022-12-01T06:15:14.507Z,18.99
2022-12-01T06:18:02.105Z,19.28
2022-12-01T06:20:49.684Z,19.70
2022-12-01T06:23:37.299Z,19.35
2022-12-01T06:26:24.921Z,19.84
2022-12-01T06:29:12.501Z,19.47
2022-12-01T06:32:00.157Z,19.81
2022-12-01T06:34:47.815Z,18.96
2022-12-01T06:37:35.408Z,19.43
2022-12-01T06:40:23.078Z,20.12
2022-12-01T06:43:10.657Z,20.16
2022-12-01T06:46:02.034Z,20.16
2022-12-01T06:48:50.018Z,20.18
2022-12-01T06:51:37.598Z,20.15
2022-12-01T06:54:25.175Z,20.31
2022-12-01T06:57:12.805Z,19.38
2022-12-01T07:00:00.720Z,19.38
2022-12-01T07:02:48.583Z,19.56
2022-12-01T07:05:36.201Z,20.69
2022-12-01T07:08:23.778Z,18.94
2022-12-01T07:11:11.380Z,19.01
2022-12-01T07:13:58.963Z,19.70
2022-12-01T07:16:46.622Z,19.53
2022-12-01T07:19:34.244Z,20.21
2022-12-01T07:22:21.858Z,19.46
2022-12-01T07:25:09.455Z,19.34
2022-12-01T07:27:57.034Z,20.71
2022-12-01T07:30:44.662Z,19.85
2022-12-01T07:33:32.249Z,20.04
2022-12-01T07:36:19.835Z,20.09
2022-12-01T07:39:07.460Z,19.93
2022-12-01T07:41:55.046Z,20.24
2022-12-01T07:44:42.638Z,18.90
2022-12-01T07:47:30.226Z,19.19
2022-12-01T07:50:17.847Z,18.96
2022-12-01T07:53:05.407Z,19.02
2022-12-01T07:55:52.998Z,20.19
2022-12-01T07:58:40.562Z,18.00
2022-12-01T08:01:28.231Z,18.73
2022-12-01T08:04:15.901Z,18.95
2022-12-01T08:07:03.502Z,19.74
2022-12-01T08:09:51.702Z,18.50
2022-12-01T08:12:39.474Z,18.99
2022-12-01T08:15:27.144Z,18.71
2022-12-01T08:18:14.802Z,18.71
2022-12-01T08:21:02.365Z,18.46
2022-12-01T08:23:49.956Z,17.51
2022-12-01T08:26:37.520Z,18.27
2022-12-01T08:29:25.113Z,18.21
2022-12-01T08:32:12.691Z,17.68
2022-12-01T08:35:00.262Z,18.67
2022-12-01T08:37:47.839Z,18.57
2022-12-01T08:40:35.423Z,17.35
2022-12-01T08:43:49.634Z,17.56
2022-12-01T08:46:30.559Z,17.85
2022-12-01T08:49:18.154Z,16.96
2022-12-01T08:52:05.732Z,17.50
2022-12-01T08:54:53.312Z,16.98
2022-12-01T08:57:40.898Z,16.96
2022-12-01T09:00:28.525Z,17.42
2022-12-01T09:03:16.167Z,17.57
2022-12-01T09:06:03.767Z,17.14
2022-12-01T09:08:51.336Z,16.44
2022-12-01T09:11:38.900Z,17.10
2022-12-01T09:14:26.511Z,16.52
2022-12-01T09:17:14.093Z,16.36
2022-12-01T09:20:01.677Z,15.94
2022-12-01T09:22:49.314Z,16.42
2022-12-01T09:25:36.886Z,15.72
2022-12-01T09:28:24.479Z,16.12
2022-12-01T09:31:12.152Z,16.02
2022-12-01T09:33:59.784Z,16.37
2022-12-01T09:36:47.351Z,16.65
2022-12-01T09:39:34.926Z,16.82
2022-12-01T09:42:22.479Z,16.29
2022-12-01T09:45:10.050Z,16.89
2022-12-01T09:47:57.648Z,17.57
2022-12-01T09:50:45.253Z,16.14
2022-12-01T09:53:32.878Z,17.08
2022-12-01T09:56:20.565Z,17.44
2022-12-01T09:59:08.189Z,17.76
2022-12-01T10:01:55.867Z,17.71
2022-12-01T10:04:43.512Z,19.16
2022-12-01T10:07:31.114Z,17.72
2022-12-01T10:10:19.906Z,18.11
2022-12-01T10:13:07.609Z,17.41
2022-12-01T10:15:55.272Z,16.49
2022-12-01T10:18:42.879Z,16.28
2022-12-01T10:21:30.476Z,17.43
2022-12-01T10:24:18.039Z,17.16
2022-12-01T10:27:05.638Z,17.56
2022-12-01T10:29:53.679Z,17.47
2022-12-01T10:32:41.594Z,17.87
2022-12-01T10:35:29.207Z,18.22
2022-12-01T10:38:16.817Z,17.87
2022-12-01T10:41:04.422Z,17.49
2022-12-01T10:43:52.063Z,16.87
2022-12-01T10:46:39.675Z,18.49
2022-12-01T10:49:27.254Z,18.35
2022-12-01T10:52:14.846Z,17.43
2022-12-01T10:55:02.451Z,17.57
2022-12-01T10:57:50.008Z,18.37
2022-12-01T11:03:45.199Z,18.01
2022-12-01T11:06:32.807Z,18.48
2022-12-01T11:09:25.976Z,18.83
2022-12-01T11:12:14.027Z,19.89
2022-12-01T11:15:01.606Z,17.84
2022-12-01T11:17:49.377Z,18.12
2022-12-01T11:20:38.420Z,18.60
2022-12-01T11:26:13.975Z,18.85
2022-12-01T11:29:01.595Z,18.95
2022-12-01T11:31:49.264Z,18.50
2022-12-01T11:34:36.903Z,17.90
2022-12-01T11:37:24.471Z,18.90
2022-12-01T11:40:12.082Z,19.72
2022-12-01T11:42:59.662Z,19.23
2022-12-01T11:45:47.328Z,18.24
2022-12-01T11:48:34.952Z,19.09
2022-12-01T11:51:22.547Z,19.28
2022-12-01T11:54:10.150Z,19.54
2022-12-01T11:57:25.810Z,19.06
2022-12-01T12:00:05.267Z,20.11
2022-12-01T12:02:52.854Z,20.04
2022-12-01T12:05:40.416Z,20.51
2022-12-01T12:08:28.033Z,18.82
2022-12-01T12:11:15.697Z,18.92
2022-12-01T12:14:03.279Z,20.62
2022-12-01T12:16:51.035Z,19.49
2022-12-01T12:20:06.247Z,18.86
2022-12-01T12:22:48.601Z,19.38
2022-12-01T12:25:39.910Z,18.51
2022-12-01T12:28:27.469Z,18.63
2022-12-01T12:31:15.130Z,18.36
2022-12-01T12:34:02.754Z,18.85
2022-12-01T12:36:50.341Z,19.38
2022-12-01T12:39:37.929Z,19.10
2022-12-01T12:42:25.522Z,18.88
2022-12-01T12:45:13.079Z,18.86
2022-12-01T12:48:00.666Z,19.39
2022-12-01T12:50:48.253Z,18.79
2022-12-01T12:53:35.899Z,19.40
2022-12-01T12:56:23.487Z,18.78
2022-12-01T12:59:11.159Z,19.98
2022-12-01T13:01:58.791Z,19.52
2022-12-01T13:04:46.392Z,19.89
2022-12-01T13:07:34.168Z,19.53
2022-12-01T13:10:21.827Z,19.64
2022-12-01T13:13:09.501Z,19.47
2022-12-01T13:15:57.136Z,18.95
2022-12-01T13:18:44.783Z,20.16
2022-12-01T13:21:32.402Z,19.10
2022-12-01T13:24:23.274Z,19.02
2022-12-01T13:27:11.219Z,19.51
2022-12-01T13:29:58.810Z,19.45
2022-12-01T13:32:46.406Z,19.12
2022-12-01T13:35:33.980Z,18.39
2022-12-01T13:38:21.571Z,19.41
2022-12-01T13:41:09.128Z,19.52
2022-12-01T13:43:56.741Z,19.68
2022-12-01T13:46:44.363Z,20.12
2022-12-01T13:49:33.464Z,20.32
2022-12-01T13:52:21.207Z,20.23
2022-12-01T13:55:08.808Z,20.38
2022-12-01T13:57:56.409Z,19.78
2022-12-01T14:00:44.006Z,20.48
2022-12-01T14:03:31.738Z,20.13
2022-12-01T14:06:19.368Z,19.53
2022-12-01T14:09:06.977Z,21.60
2022-12-01T14:11:54.545Z,20.33
2022-12-01T14:14:42.166Z,20.89
2022-12-01T14:17:29.781Z,20.69
2022-12-01T14:20:17.385Z,21.10
2022-12-01T14:23:05.104Z,19.82
2022-12-01T14:25:52.714Z,20.37
2022-12-01T14:28:40.308Z,20.45
2022-12-01T14:31:28.439Z,19.93
2022-12-01T14:34:19.167Z,19.38
2022-12-01T14:37:07.088Z,19.48
2022-12-01T14:39:54.687Z,20.13
2022-12-01T14:42:42.294Z,19.80
2022-12-01T14:45:29.889Z,19.86
2022-12-01T14:48:17.491Z,20.56
2022-12-01T14:51:05.059Z,21.01
2022-12-01T14:53:52.664Z,20.74
2022-12-01T14:56:40.211Z,20.36
2022-12-01T14:59:27.792Z,20.07
2022-12-01T15:02:15.437Z,20.18
2022-12-01T15:05:03.049Z,20.26
2022-12-01T15:07:50.680Z,20.93
2022-12-01T15:10:38.278Z,20.47
2022-12-01T15:13:25.860Z,20.46
2022-12-01T15:16:13.475Z,21.10
2022-12-01T15:19:01.121Z,20.65
2022-12-01T15:21:48.719Z,20.83
2022-12-01T15:24:36.328Z,21.82
2022-12-01T15:27:23.915Z,21.75
2022-12-01T15:30:11.494Z,21.87
2022-12-01T15:32:59.042Z,21.92
2022-12-01T15:35:46.619Z,21.67
2022-12-01T15:38:34.203Z,21.98
2022-12-01T15:41:30.035Z,22.01
2022-12-01T15:44:18.058Z,21.90
2022-12-01T15:47:05.631Z,22.60
2022-12-01T15:49:53.207Z,21.80
2022-12-01T15:52:40.789Z,21.72
2022-12-01T15:55:28.408Z,22.14
2022-12-01T15:58:16.007Z,21.34
2022-12-01T16:01:03.671Z,21.89
2022-12-01T16:03:51.333Z,21.93
2022-12-01T16:06:38.960Z,23.05
2022-12-01T16:09:26.649Z,21.78
2022-12-01T16:12:14.251Z,23.27
2022-12-01T16:15:01.837Z,21.83
2022-12-01T16:17:49.417Z,22.18
2022-12-01T16:20:37.037Z,23.30
2022-12-01T16:23:24.609Z,23.54
2022-12-01T16:26:12.191Z,23.47
2022-12-01T16:28:59.775Z,23.52
2022-12-01T16:32:12.597Z,23.23
2022-12-01T16:34:54.958Z,23.30
2022-12-01T16:37:42.566Z,24.62
2022-12-01T16:40:30.142Z,24.30
2022-12-01T16:43:17.754Z,24.66
2022-12-01T16:46:05.360Z,25.25
2022-12-01T16:48:32.768Z,24.68
2022-12-01T16:51:00.136Z,25.39
2022-12-01T16:53:27.522Z,24.24
2022-12-01T16:55:54.905Z,25.53
2022-12-01T16:58:22.295Z,26.92
2022-12-01T17:00:49.695Z,25.44
2022-12-01T17:03:17.073Z,25.48
2022-12-01T17:05:44.582Z,25.78
2022-12-01T17:08:12.083Z,25.84
2022-12-01T17:10:39.513Z,26.37
2022-12-01T17:13:07.020Z,26.84
2022-12-01T17:15:34.497Z,27.44
2022-12-01T17:18:01.972Z,26.83
2022-12-01T17:20:29.374Z,27.73
2022-12-01T17:22:56.748Z,26.92
2022-12-01T17:25:24.151Z,26.18
2022-12-01T17:27:51.534Z,26.72
2022-12-01T17:30:18.931Z,28.30
2022-12-01T17:32:46.298Z,27.68
2022-12-01T17:35:13.970Z,27.59
2022-12-01T17:37:41.362Z,26.65
2022-12-01T17:40:08.779Z,26.77
2022-12-01T17:42:36.167Z,27.33
2022-12-01T17:45:03.827Z,27.69
2022-12-01T17:47:31.227Z,27.81
2022-12-01T17:49:58.606Z,27.08
2022-12-01T17:52:28.585Z,27.49
2022-12-01T17:54:56.172Z,28.69
2022-12-01T17:57:23.582Z,27.47
2022-12-01T17:59:50.985Z,26.73
2022-12-01T18:02:18.460Z,27.15
2022-12-01T18:04:48.117Z,27.50
2022-12-01T18:07:15.594Z,27.27
2022-12-01T18:09:42.974Z,27.24
2022-12-01T18:12:10.415Z,28.17
2022-12-01T18:14:37.860Z,28.04
2022-12-01T18:17:05.239Z,29.14
2022-12-01T18:19:32.772Z,27.46
2022-12-01T18:22:00.333Z,26.78
2022-12-01T18:24:27.762Z,27.05
2022-12-01T18:26:55.177Z,27.32
2022-12-01T18:29:22.655Z,27.40
2022-12-01T18:31:50.243Z,27.59
2022-12-01T18:34:17.786Z,28.78
2022-12-01T18:36:45.220Z,28.03
2022-12-01T18:39:12.623Z,27.62
2022-12-01T18:41:40.041Z,27.87
2022-12-01T18:44:07.460Z,28.26
2022-12-01T18:46:35.019Z,27.95
2022-12-01T18:49:02.517Z,29.07
2022-12-01T18:51:29.907Z,28.59
2022-12-01T18:53:57.459Z,27.70
2022-12-01T18:56:24.866Z,27.63
2022-12-01T18:58:52.263Z,27.83
2022-12-01T19:01:19.768Z,27.15
2022-12-01T19:03:47.217Z,27.38
2022-12-01T19:06:14.641Z,27.32
2022-12-01T19:08:42.022Z,28.62
2022-12-01T19:11:09.477Z,28.10
2022-12-01T19:13:36.867Z,27.83
2022-12-01T19:16:04.285Z,26.87
2022-12-01T19:18:31.699Z,26.80
2022-12-01T19:20:59.085Z,26.11
2022-12-01T19:23:26.467Z,26.99
2022-12-01T19:25:53.840Z,27.96
2022-12-01T19:28:21.230Z,26.94
2022-12-01T19:30:48.660Z,28.15
2022-12-01T19:33:16.069Z,27.44
2022-12-01T19:35:43.509Z,28.29
2022-12-01T19:38:10.939Z,27.51
2022-12-01T19:40:38.358Z,27.00
2022-12-01T19:43:05.747Z,26.88
2022-12-01T19:45:34.380Z,27.57
2022-12-01T19:48:02.091Z,27.24
2022-12-01T19:50:29.479Z,28.45
2022-12-01T19:52:56.870Z,28.70
2022-12-01T19:55:24.286Z,27.97
2022-12-01T19:57:51.703Z,28.44
2022-12-01T20:00:19.178Z,28.63
2022-12-01T20:02:46.628Z,28.50
2022-12-01T20:05:14.052Z,28.01
2022-12-01T20:07:41.484Z,27.32
2022-12-01T20:10:08.961Z,28.37
2022-12-01T20:12:36.430Z,28.11
2022-12-01T20:15:03.845Z,28.84
2022-12-01T20:17:31.260Z,28.66
2022-12-01T20:19:58.652Z,28.45
2022-12-01T20:22:26.024Z,28.78
2022-12-01T20:24:53.520Z,28.46
2022-12-01T20:27:20.990Z,29.51
2022-12-01T20:30:07.123Z,29.30
2022-12-01T20:32:52.971Z,29.29
2022-12-01T20:35:40.582Z,28.78
2022-12-01T20:38:28.182Z,28.69
2022-12-01T20:41:15.746Z,28.66
2022-12-01T20:44:07.505Z,28.89
2022-12-01T20:46:55.500Z,28.73
2022-12-01T20:49:43.095Z,29.84
2022-12-01T20:52:30.656Z,29.03
2022-12-01T20:55:18.264Z,27.96
2022-12-01T20:58:05.823Z,28.02
2022-12-01T21:00:53.485Z,26.98
2022-12-01T21:03:41.067Z,27.19
2022-12-01T21:06:28.683Z,27.18
2022-12-01T21:09:16.267Z,29.32
2022-12-01T21:12:03.871Z,28.15
2022-12-01T21:14:51.730Z,27.08
2022-12-01T21:17:39.598Z,28.38
2022-12-01T21:20:27.203Z,27.99
2022-12-01T21:23:14.796Z,29.49
2022-12-01T21:26:02.382Z,28.63
2022-12-01T21:28:49.994Z,29.82
2022-12-01T21:31:37.593Z,29.56
2022-12-01T21:34:25.210Z,29.72
2022-12-01T21:37:12.787Z,29.61
2022-12-01T21:40:00.388Z,30.00
2022-12-01T21:42:47.997Z,29.00
2022-12-01T21:45:35.633Z,28.34
2022-12-01T21:48:23.292Z,29.30
2022-12-01T21:51:10.938Z,29.34
2022-12-01T21:53:58.549Z,28.53
2022-12-01T21:56:46.153Z,29.90
2022-12-01T21:59:33.703Z,30.86
2022-12-01T22:02:21.383Z,30.71
2022-12-01T22:05:09.009Z,29.13
2022-12-01T22:07:56.637Z,29.86
2022-12-01T22:10:44.255Z,30.14
2022-12-01T22:13:31.844Z,30.20
2022-12-01T22:16:19.526Z,30.04
2022-12-01T22:19:07.214Z,30.12
2022-12-01T22:21:54.797Z,30.83
2022-12-01T22:24:42.383Z,30.69
2022-12-01T22:27:29.961Z,29.67
2022-12-01T22:30:17.538Z,30.97
2022-12-01T22:33:05.122Z,30.23
2022-12-01T22:35:52.705Z,29.56
2022-12-01T22:38:40.313Z,30.92
2022-12-01T22:41:27.937Z,30.25
2022-12-01T22:44:15.574Z,30.52
2022-12-01T22:47:03.155Z,29.43
2022-12-01T22:49:50.748Z,30.41
2022-12-01T22:52:38.337Z,30.54
2022-12-01T22:55:25.949Z,31.66
2022-12-01T22:58:13.554Z,29.86
2022-12-01T23:01:01.188Z,30.63
2022-12-01T23:03:48.760Z,30.37
2022-12-01T23:06:36.353Z,30.35
2022-12-01T23:09:23.948Z,31.70
2022-12-01T23:12:11.581Z,30.74
2022-12-01T23:15:01.179Z,30.05
2022-12-01T23:17:48.795Z,32.09
2022-12-01T23:20:36.375Z,31.99
2022-12-01T23:23:23.978Z,32.25
2022-12-01T23:26:11.592Z,30.81
2022-12-01T23:28:59.239Z,31.78
2022-12-01T23:31:46.999Z,31.46
2022-12-01T23:34:34.695Z,30.91
2022-12-01T23:37:22.279Z,30.35
2022-12-01T23:40:09.888Z,31.39
2022-12-01T23:42:57.446Z,32.29
2022-12-01T23:45:45.031Z,31.81
2022-12-01T23:48:32.631Z,31.47
2022-12-01T23:51:20.274Z,31.79
2022-12-01T23:54:07.883Z,31.64
2022-12-01T23:56:55.501Z,31.47
2022-12-01T23:59:43.072Z,32.55
